sensor_id;sensor_type;location;lat;lon;timestamp;pressure;altitude;pressure_sealevel;temperature;humidity
41246;BME280;53880;47.526;18.986;2023-12-29T00:02:20;100168.59;;;15.70;nan
41246;BME280;53880;47.526;18.986;2023-12-29T00:04:40;100162.25;;;15.93;nan
41246;BME280;53880;47.526;18.986;2023-12-29T00:06:57;100170.75;;;16.19;nan
41246;BME280;53880;47.526;18.986;2023-12-29T00:09:17;100167.16;;;16.40;nan
41246;BME280;53880;47.526;18.986;2023-12-29T00:11:34;100163.81;;;16.59;nan
41246;BME280;53880;47.526;18.986;2023-12-29T00:13:55;100157.06;;;16.75;nan
41246;BME280;53880;47.526;18.986;2023-12-29T00:16:14;100161.09;;;16.91;nan
41246;BME280;53880;47.526;18.986;2023-12-29T00:18:34;100156.34;;;17.04;nan
41246;BME280;53880;47.526;18.986;2023-12-29T00:20:51;100151.81;;;17.15;nan
41246;BME280;53880;47.526;18.986;2023-12-29T00:23:09;100150.88;;;17.26;nan
41246;BME280;53880;47.526;18.986;2023-12-29T00:25:29;100147.00;;;17.39;nan
41246;BME280;53880;47.526;18.986;2023-12-29T00:27:49;100138.19;;;17.48;nan
41246;BME280;53880;47.526;18.986;2023-12-29T00:30:10;100138.25;;;17.58;nan
41246;BME280;53880;47.526;18.986;2023-12-29T00:32:27;100133.09;;;17.66;nan
41246;BME280;53880;47.526;18.986;2023-12-29T00:34:45;100137.72;;;17.74;nan
41246;BME280;53880;47.526;18.986;2023-12-29T00:37:05;100140.53;;;17.82;nan
41246;BME280;53880;47.526;18.986;2023-12-29T00:39:23;100143.50;;;17.88;nan
41246;BME280;53880;47.526;18.986;2023-12-29T00:41:50;100138.44;;;17.95;nan
41246;BME280;53880;47.526;18.986;2023-12-29T00:44:07;100141.41;;;18.01;nan
41246;BME280;53880;47.526;18.986;2023-12-29T00:46:25;100130.31;;;18.06;nan
41246;BME280;53880;47.526;18.986;2023-12-29T00:48:46;100123.56;;;18.11;nan
41246;BME280;53880;47.526;18.986;2023-12-29T00:51:06;100123.16;;;18.16;nan
41246;BME280;53880;47.526;18.986;2023-12-29T00:53:23;100119.09;;;18.21;nan
41246;BME280;53880;47.526;18.986;2023-12-29T00:55:41;100116.00;;;18.26;nan
41246;BME280;53880;47.526;18.986;2023-12-29T00:57:58;100117.25;;;18.32;nan
41246;BME280;53880;47.526;18.986;2023-12-29T01:00:16;100116.84;;;18.36;nan
41246;BME280;53880;47.526;18.986;2023-12-29T01:02:31;100122.72;;;18.40;nan
41246;BME280;53880;47.526;18.986;2023-12-29T01:04:49;100127.94;;;18.41;nan
41246;BME280;53880;47.526;18.986;2023-12-29T01:07:06;100131.31;;;18.43;nan
41246;BME280;53880;47.526;18.986;2023-12-29T01:09:21;100125.69;;;18.46;nan
41246;BME280;53880;47.526;18.986;2023-12-29T01:11:36;100129.22;;;18.47;nan
41246;BME280;53880;47.526;18.986;2023-12-29T01:13:59;100132.56;;;18.49;nan
41246;BME280;53880;47.526;18.986;2023-12-29T01:16:13;100129.91;;;18.49;nan
41246;BME280;53880;47.526;18.986;2023-12-29T01:18:31;100120.94;;;18.50;nan
41246;BME280;53880;47.526;18.986;2023-12-29T01:20:54;100131.59;;;18.50;nan
41246;BME280;53880;47.526;18.986;2023-12-29T01:23:11;100124.44;;;18.50;nan
41246;BME280;53880;47.526;18.986;2023-12-29T01:25:26;100119.13;;;18.50;nan
41246;BME280;53880;47.526;18.986;2023-12-29T01:27:43;100118.13;;;18.51;nan
41246;BME280;53880;47.526;18.986;2023-12-29T01:30:01;100125.28;;;18.51;nan
41246;BME280;53880;47.526;18.986;2023-12-29T01:32:19;100117.25;;;18.51;nan
41246;BME280;53880;47.526;18.986;2023-12-29T01:34:36;100119.13;;;18.50;nan
41246;BME280;53880;47.526;18.986;2023-12-29T01:36:56;100114.75;;;18.49;nan
41246;BME280;53880;47.526;18.986;2023-12-29T01:39:13;100104.22;;;18.48;nan
41246;BME280;53880;47.526;18.986;2023-12-29T01:41:36;100105.03;;;18.48;nan
41246;BME280;53880;47.526;18.986;2023-12-29T01:46:22;100102.53;;;18.47;nan
41246;BME280;53880;47.526;18.986;2023-12-29T01:48:39;100099.16;;;18.45;nan
41246;BME280;53880;47.526;18.986;2023-12-29T01:50:58;100100.97;;;18.44;nan
41246;BME280;53880;47.526;18.986;2023-12-29T01:53:15;100101.94;;;18.43;nan
41246;BME280;53880;47.526;18.986;2023-12-29T01:55:37;100098.44;;;18.43;nan
41246;BME280;53880;47.526;18.986;2023-12-29T01:57:58;100095.53;;;18.46;nan
41246;BME280;53880;47.526;18.986;2023-12-29T02:00:19;100090.03;;;18.47;nan
41246;BME280;53880;47.526;18.986;2023-12-29T02:02:39;100085.94;;;18.53;nan
41246;BME280;53880;47.526;18.986;2023-12-29T02:05:02;100088.88;;;18.59;nan
41246;BME280;53880;47.526;18.986;2023-12-29T02:07:18;100091.00;;;18.65;nan
41246;BME280;53880;47.526;18.986;2023-12-29T02:09:36;100083.22;;;18.72;nan
41246;BME280;53880;47.526;18.986;2023-12-29T02:11:54;100091.78;;;18.75;nan
41246;BME280;53880;47.526;18.986;2023-12-29T02:14:14;100091.38;;;18.80;nan
41246;BME280;53880;47.526;18.986;2023-12-29T02:19:07;100090.50;;;18.89;nan
41246;BME280;53880;47.526;18.986;2023-12-29T02:21:28;100090.03;;;18.93;nan
41246;BME280;53880;47.526;18.986;2023-12-29T02:23:48;100091.56;;;18.96;nan
41246;BME280;53880;47.526;18.986;2023-12-29T02:26:10;100091.56;;;18.96;nan
41246;BME280;53880;47.526;18.986;2023-12-29T02:28:41;100086.91;;;18.98;nan
41246;BME280;53880;47.526;18.986;2023-12-29T02:31:09;100074.41;;;18.98;nan
41246;BME280;53880;47.526;18.986;2023-12-29T02:33:30;100070.78;;;18.99;nan
41246;BME280;53880;47.526;18.986;2023-12-29T02:35:52;100065.44;;;18.99;nan
41246;BME280;53880;47.526;18.986;2023-12-29T02:38:11;100060.91;;;19.00;nan
41246;BME280;53880;47.526;18.986;2023-12-29T02:40:30;100060.09;;;18.99;nan
41246;BME280;53880;47.526;18.986;2023-12-29T02:42:49;100069.09;;;18.98;nan
41246;BME280;53880;47.526;18.986;2023-12-29T02:45:04;100064.59;;;18.99;nan
41246;BME280;53880;47.526;18.986;2023-12-29T02:47:22;100062.06;;;18.97;nan
41246;BME280;53880;47.526;18.986;2023-12-29T02:49:42;100070.91;;;18.98;nan
41246;BME280;53880;47.526;18.986;2023-12-29T02:52:02;100062.91;;;18.98;nan
41246;BME280;53880;47.526;18.986;2023-12-29T02:54:22;100064.75;;;18.97;nan
41246;BME280;53880;47.526;18.986;2023-12-29T02:56:37;100062.19;;;18.96;nan
41246;BME280;53880;47.526;18.986;2023-12-29T02:58:59;100060.53;;;18.95;nan
41246;BME280;53880;47.526;18.986;2023-12-29T03:01:17;100059.00;;;18.92;nan
41246;BME280;53880;47.526;18.986;2023-12-29T03:03:32;100056.47;;;18.91;nan
41246;BME280;53880;47.526;18.986;2023-12-29T03:05:52;100054.94;;;18.88;nan
41246;BME280;53880;47.526;18.986;2023-12-29T03:08:09;100047.91;;;18.87;nan
41246;BME280;53880;47.526;18.986;2023-12-29T03:10:28;100052.41;;;18.87;nan
41246;BME280;53880;47.526;18.986;2023-12-29T03:12:43;100059.88;;;18.83;nan
41246;BME280;53880;47.526;18.986;2023-12-29T03:15:03;100057.19;;;18.83;nan
41246;BME280;53880;47.526;18.986;2023-12-29T03:17:20;100055.53;;;18.82;nan
41246;BME280;53880;47.526;18.986;2023-12-29T03:19:40;100061.31;;;18.78;nan
41246;BME280;53880;47.526;18.986;2023-12-29T03:21:54;100054.28;;;18.77;nan
41246;BME280;53880;47.526;18.986;2023-12-29T03:24:12;100055.81;;;18.79;nan
41246;BME280;53880;47.526;18.986;2023-12-29T03:26:32;100060.19;;;18.80;nan
41246;BME280;53880;47.526;18.986;2023-12-29T03:28:50;100049.19;;;18.83;nan
41246;BME280;53880;47.526;18.986;2023-12-29T03:31:14;100051.97;;;18.91;nan
41246;BME280;53880;47.526;18.986;2023-12-29T03:33:30;100049.69;;;18.96;nan
41246;BME280;53880;47.526;18.986;2023-12-29T03:35:48;100056.59;;;18.99;nan
41246;BME280;53880;47.526;18.986;2023-12-29T03:38:07;100055.56;;;19.00;nan
41246;BME280;53880;47.526;18.986;2023-12-29T03:40:22;100045.06;;;18.98;nan
41246;BME280;53880;47.526;18.986;2023-12-29T03:42:44;100038.75;;;18.99;nan
41246;BME280;53880;47.526;18.986;2023-12-29T03:45:01;100041.41;;;18.99;nan
41246;BME280;53880;47.526;18.986;2023-12-29T03:47:22;100038.75;;;18.99;nan
41246;BME280;53880;47.526;18.986;2023-12-29T03:49:39;100045.91;;;18.99;nan
41246;BME280;53880;47.526;18.986;2023-12-29T03:51:54;100032.56;;;18.99;nan
41246;BME280;53880;47.526;18.986;2023-12-29T03:54:12;100039.72;;;18.98;nan
41246;BME280;53880;47.526;18.986;2023-12-29T03:56:29;100040.56;;;18.99;nan
41246;BME280;53880;47.526;18.986;2023-12-29T03:58:47;100041.41;;;18.99;nan
41246;BME280;53880;47.526;18.986;2023-12-29T04:01:08;100054.06;;;18.97;nan
41246;BME280;53880;47.526;18.986;2023-12-29T04:03:23;100054.06;;;18.97;nan
41246;BME280;53880;47.526;18.986;2023-12-29T04:05:41;100051.53;;;18.96;nan
41246;BME280;53880;47.526;18.986;2023-12-29T04:08:01;100060.38;;;18.96;nan
41246;BME280;53880;47.526;18.986;2023-12-29T04:10:23;100059.00;;;18.92;nan
41246;BME280;53880;47.526;18.986;2023-12-29T04:12:43;100058.16;;;18.92;nan
41246;BME280;53880;47.526;18.986;2023-12-29T04:15:06;100057.63;;;18.88;nan
41246;BME280;53880;47.526;18.986;2023-12-29T04:17:21;100055.06;;;18.87;nan
41246;BME280;53880;47.526;18.986;2023-12-29T04:19:38;100060.41;;;18.87;nan
41246;BME280;53880;47.526;18.986;2023-12-29T04:21:56;100057.03;;;18.85;nan
41246;BME280;53880;47.526;18.986;2023-12-29T04:24:12;100062.69;;;18.82;nan
41246;BME280;53880;47.526;18.986;2023-12-29T04:26:34;100068.19;;;18.80;nan
41246;BME280;53880;47.526;18.986;2023-12-29T04:28:54;100063.81;;;18.79;nan
41246;BME280;53880;47.526;18.986;2023-12-29T04:31:14;100064.66;;;18.80;nan
41246;BME280;53880;47.526;18.986;2023-12-29T04:33:39;100074.66;;;18.78;nan
41246;BME280;53880;47.526;18.986;2023-12-29T04:36:01;100071.41;;;18.74;nan
41246;BME280;53880;47.526;18.986;2023-12-29T04:38:19;100064.41;;;18.73;nan
41246;BME280;53880;47.526;18.986;2023-12-29T04:40:37;100067.09;;;18.73;nan
41246;BME280;53880;47.526;18.986;2023-12-29T04:42:57;100060.34;;;18.69;nan
41246;BME280;53880;47.526;18.986;2023-12-29T04:45:20;100054.31;;;18.67;nan
41246;BME280;53880;47.526;18.986;2023-12-29T04:47:38;100056.44;;;18.64;nan
41246;BME280;53880;47.526;18.986;2023-12-29T04:49:53;100052.22;;;18.61;nan
41246;BME280;53880;47.526;18.986;2023-12-29T04:52:12;100060.22;;;18.61;nan
41246;BME280;53880;47.526;18.986;2023-12-29T04:54:32;100051.53;;;18.59;nan
41246;BME280;53880;47.526;18.986;2023-12-29T04:56:50;100057.28;;;18.55;nan
41246;BME280;53880;47.526;18.986;2023-12-29T04:59:07;100054.09;;;18.51;nan
41246;BME280;53880;47.526;18.986;2023-12-29T05:01:30;100062.09;;;18.51;nan
41246;BME280;53880;47.526;18.986;2023-12-29T05:03:47;100057.03;;;18.48;nan
41246;BME280;53880;47.526;18.986;2023-12-29T05:06:02;100054.50;;;18.47;nan
41246;BME280;53880;47.526;18.986;2023-12-29T05:08:23;100049.31;;;18.45;nan
41246;BME280;53880;47.526;18.986;2023-12-29T05:10:40;100056.47;;;18.45;nan
41246;BME280;53880;47.526;18.986;2023-12-29T05:12:58;100052.13;;;18.44;nan
41246;BME280;53880;47.526;18.986;2023-12-29T05:15:15;100057.34;;;18.45;nan
41246;BME280;53880;47.526;18.986;2023-12-29T05:17:30;100059.00;;;18.46;nan
41246;BME280;53880;47.526;18.986;2023-12-29T05:19:47;100064.91;;;18.50;nan
41246;BME280;53880;47.526;18.986;2023-12-29T05:22:02;100062.78;;;18.53;nan
41246;BME280;53880;47.526;18.986;2023-12-29T05:24:20;100065.16;;;18.56;nan
41246;BME280;53880;47.526;18.986;2023-12-29T05:26:37;100063.75;;;18.62;nan
41246;BME280;53880;47.526;18.986;2023-12-29T05:28:57;100066.50;;;18.70;nan
41246;BME280;53880;47.526;18.986;2023-12-29T05:31:17;100068.63;;;18.76;nan
41246;BME280;53880;47.526;18.986;2023-12-29T05:33:33;100069.84;;;18.81;nan
41246;BME280;53880;47.526;18.986;2023-12-29T05:35:53;100071.09;;;18.87;nan
41246;BME280;53880;47.526;18.986;2023-12-29T05:38:15;100073.19;;;18.93;nan
41246;BME280;53880;47.526;18.986;2023-12-29T05:40:35;100073.72;;;18.96;nan
41246;BME280;53880;47.526;18.986;2023-12-29T05:42:53;100075.13;;;19.00;nan
41246;BME280;53880;47.526;18.986;2023-12-29T05:45:10;100073.00;;;19.04;nan
41246;BME280;53880;47.526;18.986;2023-12-29T05:47:30;100070.03;;;19.07;nan
41246;BME280;53880;47.526;18.986;2023-12-29T05:49:50;100074.06;;;19.11;nan
41246;BME280;53880;47.526;18.986;2023-12-29T05:52:10;100065.78;;;19.14;nan
41246;BME280;53880;47.526;18.986;2023-12-29T05:54:32;100073.47;;;19.17;nan
41246;BME280;53880;47.526;18.986;2023-12-29T05:56:52;100075.88;;;19.20;nan
41246;BME280;53880;47.526;18.986;2023-12-29T05:59:12;100079.06;;;19.24;nan
41246;BME280;53880;47.526;18.986;2023-12-29T06:01:29;100084.13;;;19.27;nan
41246;BME280;53880;47.526;18.986;2023-12-29T06:03:44;100089.31;;;19.28;nan
41246;BME280;53880;47.526;18.986;2023-12-29T06:06:03;100086.34;;;19.31;nan
41246;BME280;53880;47.526;18.986;2023-12-29T06:08:22;100092.38;;;19.33;nan
41246;BME280;53880;47.526;18.986;2023-12-29T06:10:42;100097.47;;;19.36;nan
41246;BME280;53880;47.526;18.986;2023-12-29T06:13:01;100108.84;;;19.38;nan
41246;BME280;53880;47.526;18.986;2023-12-29T06:15:23;100103.34;;;19.40;nan
41246;BME280;53880;47.526;18.986;2023-12-29T06:17:41;100096.88;;;19.42;nan
41246;BME280;53880;47.526;18.986;2023-12-29T06:19:59;100092.91;;;19.46;nan
41246;BME280;53880;47.526;18.986;2023-12-29T06:22:19;100087.41;;;19.48;nan
41246;BME280;53880;47.526;18.986;2023-12-29T06:24:34;100091.63;;;19.50;nan
41246;BME280;53880;47.526;18.986;2023-12-29T06:26:54;100081.63;;;19.52;nan
41246;BME280;53880;47.526;18.986;2023-12-29T06:29:12;100082.31;;;19.54;nan
41246;BME280;53880;47.526;18.986;2023-12-29T06:31:29;100085.66;;;19.56;nan
41246;BME280;53880;47.526;18.986;2023-12-29T06:33:44;100081.84;;;19.59;nan
41246;BME280;53880;47.526;18.986;2023-12-29T06:36:05;100076.22;;;19.62;nan
41246;BME280;53880;47.526;18.986;2023-12-29T06:38:22;100082.25;;;19.64;nan
41246;BME280;53880;47.526;18.986;2023-12-29T06:40:38;100081.25;;;19.65;nan
41246;BME280;53880;47.526;18.986;2023-12-29T06:42:56;100079.25;;;19.67;nan
41246;BME280;53880;47.526;18.986;2023-12-29T06:45:16;100086.13;;;19.69;nan
41246;BME280;53880;47.526;18.986;2023-12-29T06:47:34;100090.50;;;19.70;nan
41246;BME280;53880;47.526;18.986;2023-12-29T06:49:49;100087.66;;;19.72;nan
41246;BME280;53880;47.526;18.986;2023-12-29T06:52:07;100091.03;;;19.74;nan
41246;BME280;53880;47.526;18.986;2023-12-29T06:54:24;100093.53;;;19.75;nan
41246;BME280;53880;47.526;18.986;2023-12-29T06:56:42;100091.56;;;19.77;nan
41246;BME280;53880;47.526;18.986;2023-12-29T06:58:59;100099.44;;;19.79;nan
41246;BME280;53880;47.526;18.986;2023-12-29T07:01:19;100092.13;;;19.81;nan
41246;BME280;53880;47.526;18.986;2023-12-29T07:03:37;100089.28;;;19.83;nan
41246;BME280;53880;47.526;18.986;2023-12-29T07:05:52;100090.97;;;19.84;nan
41246;BME280;53880;47.526;18.986;2023-12-29T07:08:12;100089.00;;;19.86;nan
41246;BME280;53880;47.526;18.986;2023-12-29T07:10:30;100087.16;;;19.86;nan
41246;BME280;53880;47.526;18.986;2023-12-29T07:12:45;100079.84;;;19.88;nan
41246;BME280;53880;47.526;18.986;2023-12-29T07:15:03;100086.84;;;19.89;nan
41246;BME280;53880;47.526;18.986;2023-12-29T07:17:18;100077.84;;;19.90;nan
41246;BME280;53880;47.526;18.986;2023-12-29T07:19:35;100082.88;;;19.93;nan
41246;BME280;53880;47.526;18.986;2023-12-29T07:21:56;100091.97;;;20.00;nan
41246;BME280;53880;47.526;18.986;2023-12-29T07:24:15;100090.50;;;20.06;nan
41246;BME280;53880;47.526;18.986;2023-12-29T07:26:32;100092.59;;;20.12;nan
41246;BME280;53880;47.526;18.986;2023-12-29T07:28:53;100097.78;;;20.13;nan
41246;BME280;53880;47.526;18.986;2023-12-29T07:31:08;100083.38;;;20.14;nan
41246;BME280;53880;47.526;18.986;2023-12-29T07:33:31;100080.56;;;20.16;nan
41246;BME280;53880;47.526;18.986;2023-12-29T07:35:49;100076.75;;;20.18;nan
41246;BME280;53880;47.526;18.986;2023-12-29T07:38:09;100071.78;;;20.23;nan
41246;BME280;53880;47.526;18.986;2023-12-29T07:40:24;100075.03;;;20.27;nan
41246;BME280;53880;47.526;18.986;2023-12-29T07:42:45;100072.19;;;20.28;nan
41246;BME280;53880;47.526;18.986;2023-12-29T07:45:01;100069.34;;;20.30;nan
41246;BME280;53880;47.526;18.986;2023-12-29T07:47:23;100076.38;;;20.31;nan
41246;BME280;53880;47.526;18.986;2023-12-29T07:49:41;100069.34;;;20.30;nan
41246;BME280;53880;47.526;18.986;2023-12-29T07:51:59;100074.56;;;20.31;nan
41246;BME280;53880;47.526;18.986;2023-12-29T07:54:19;100076.91;;;20.34;nan
41246;BME280;53880;47.526;18.986;2023-12-29T07:56:34;100076.72;;;20.36;nan
41246;BME280;53880;47.526;18.986;2023-12-29T07:58:53;100080.25;;;20.36;nan
41246;BME280;53880;47.526;18.986;2023-12-29T08:01:13;100078.44;;;20.37;nan
41246;BME280;53880;47.526;18.986;2023-12-29T08:03:33;100088.13;;;20.38;nan
41246;BME280;53880;47.526;18.986;2023-12-29T08:05:53;100088.84;;;20.40;nan
41246;BME280;53880;47.526;18.986;2023-12-29T08:08:13;100083.47;;;20.40;nan
41246;BME280;53880;47.526;18.986;2023-12-29T08:10:33;100086.97;;;20.40;nan
41246;BME280;53880;47.526;18.986;2023-12-29T08:12:47;100094.03;;;20.41;nan
41246;BME280;53880;47.526;18.986;2023-12-29T08:15:03;100098.34;;;20.42;nan
41246;BME280;53880;47.526;18.986;2023-12-29T08:17:21;100101.03;;;20.42;nan
41246;BME280;53880;47.526;18.986;2023-12-29T08:19:40;100092.03;;;20.43;nan
41246;BME280;53880;47.526;18.986;2023-12-29T08:21:55;100096.38;;;20.44;nan
41246;BME280;53880;47.526;18.986;2023-12-29T08:24:14;100094.53;;;20.45;nan
41246;BME280;53880;47.526;18.986;2023-12-29T08:26:34;100088.19;;;20.46;nan
41246;BME280;53880;47.526;18.986;2023-12-29T08:28:52;100092.72;;;20.45;nan
41246;BME280;53880;47.526;18.986;2023-12-29T08:31:08;100096.91;;;20.48;nan
41246;BME280;53880;47.526;18.986;2023-12-29T08:33:28;100092.41;;;20.48;nan
41246;BME280;53880;47.526;18.986;2023-12-29T08:35:46;100086.03;;;20.49;nan
41246;BME280;53880;47.526;18.986;2023-12-29T08:38:04;100092.25;;;20.50;nan
41246;BME280;53880;47.526;18.986;2023-12-29T08:40:24;100098.28;;;20.52;nan
41246;BME280;53880;47.526;18.986;2023-12-29T08:42:39;100099.13;;;20.52;nan
41246;BME280;53880;47.526;18.986;2023-12-29T08:44:58;100091.09;;;20.52;nan
41246;BME280;53880;47.526;18.986;2023-12-29T08:47:18;100097.25;;;20.53;nan
41246;BME280;53880;47.526;18.986;2023-12-29T08:49:39;100089.41;;;20.51;nan
41246;BME280;53880;47.526;18.986;2023-12-29T08:51:55;100090.41;;;20.50;nan
41246;BME280;53880;47.526;18.986;2023-12-29T08:54:15;100086.22;;;20.48;nan
41246;BME280;53880;47.526;18.986;2023-12-29T08:56:34;100087.19;;;20.47;nan
41246;BME280;53880;47.526;18.986;2023-12-29T08:58:56;100098.06;;;20.45;nan
41246;BME280;53880;47.526;18.986;2023-12-29T09:01:16;100091.34;;;20.41;nan
41246;BME280;53880;47.526;18.986;2023-12-29T09:03:36;100113.03;;;20.38;nan
41246;BME280;53880;47.526;18.986;2023-12-29T09:05:56;100108.84;;;20.36;nan
41246;BME280;53880;47.526;18.986;2023-12-29T09:08:13;100102.28;;;20.30;nan
41246;BME280;53880;47.526;18.986;2023-12-29T09:10:29;100100.75;;;20.28;nan
41246;BME280;53880;47.526;18.986;2023-12-29T09:12:46;100098.53;;;20.23;nan
41246;BME280;53880;47.526;18.986;2023-12-29T09:15:04;100089.00;;;20.21;nan
41246;BME280;53880;47.526;18.986;2023-12-29T09:17:19;100069.28;;;20.22;nan
41246;BME280;53880;47.526;18.986;2023-12-29T09:19:39;100065.75;;;20.21;nan
41246;BME280;53880;47.526;18.986;2023-12-29T09:22:01;100083.34;;;20.24;nan
41246;BME280;53880;47.526;18.986;2023-12-29T09:24:16;100074.16;;;20.26;nan
41246;BME280;53880;47.526;18.986;2023-12-29T09:26:34;100079.75;;;20.33;nan
41246;BME280;53880;47.526;18.986;2023-12-29T09:28:49;100076.59;;;20.37;nan
41246;BME280;53880;47.526;18.986;2023-12-29T09:31:04;100080.63;;;20.41;nan
41246;BME280;53880;47.526;18.986;2023-12-29T09:33:21;100084.69;;;20.45;nan
41246;BME280;53880;47.526;18.986;2023-12-29T09:35:40;100081.69;;;20.48;nan
41246;BME280;53880;47.526;18.986;2023-12-29T09:37:58;100080.38;;;20.52;nan
41246;BME280;53880;47.526;18.986;2023-12-29T09:40:21;100090.63;;;20.57;nan
41246;BME280;53880;47.526;18.986;2023-12-29T09:42:43;100092.00;;;20.61;nan
41246;BME280;53880;47.526;18.986;2023-12-29T09:45:02;100093.53;;;20.64;nan
41246;BME280;53880;47.526;18.986;2023-12-29T09:47:23;100098.38;;;20.68;nan
41246;BME280;53880;47.526;18.986;2023-12-29T09:49:46;100098.06;;;20.71;nan
41246;BME280;53880;47.526;18.986;2023-12-29T09:52:13;100094.41;;;20.72;nan
41246;BME280;53880;47.526;18.986;2023-12-29T09:54:31;100090.72;;;20.73;nan
41246;BME280;53880;47.526;18.986;2023-12-29T09:56:49;100093.09;;;20.76;nan
41246;BME280;53880;47.526;18.986;2023-12-29T09:59:09;100076.84;;;20.78;nan
41246;BME280;53880;47.526;18.986;2023-12-29T10:01:28;100076.84;;;20.78;nan
41246;BME280;53880;47.526;18.986;2023-12-29T10:03:48;100074.00;;;20.79;nan
41246;BME280;53880;47.526;18.986;2023-12-29T10:06:06;100069.50;;;20.80;nan
41246;BME280;53880;47.526;18.986;2023-12-29T10:08:28;100064.16;;;20.80;nan
41246;BME280;53880;47.526;18.986;2023-12-29T10:10:49;100060.31;;;20.82;nan
41246;BME280;53880;47.526;18.986;2023-12-29T10:13:11;100059.31;;;20.83;nan
41246;BME280;53880;47.526;18.986;2023-12-29T10:23:53;100053.94;;;20.83;nan
41246;BME280;53880;47.526;18.986;2023-12-29T10:26:19;100045.09;;;20.83;nan
41246;BME280;53880;47.526;18.986;2023-12-29T10:28:37;100051.78;;;20.79;nan
41246;BME280;53880;47.526;18.986;2023-12-29T10:30:54;100052.38;;;20.73;nan
41246;BME280;53880;47.526;18.986;2023-12-29T10:33:19;100054.84;;;20.66;nan
41246;BME280;53880;47.526;18.986;2023-12-29T10:35:38;100046.63;;;20.60;nan
41246;BME280;53880;47.526;18.986;2023-12-29T10:38:13;100042.97;;;20.61;nan
41246;BME280;53880;47.526;18.986;2023-12-29T10:40:34;100038.44;;;20.61;nan
41246;BME280;53880;47.526;18.986;2023-12-29T10:42:55;100034.56;;;20.56;nan
41246;BME280;53880;47.526;18.986;2023-12-29T10:45:14;100032.50;;;20.49;nan
41246;BME280;53880;47.526;18.986;2023-12-29T10:47:31;100032.22;;;20.52;nan
41246;BME280;53880;47.526;18.986;2023-12-29T10:49:59;100030.91;;;20.57;nan
41246;BME280;53880;47.526;18.986;2023-12-29T10:52:18;100026.53;;;20.56;nan
41246;BME280;53880;47.526;18.986;2023-12-29T10:54:37;100024.31;;;20.51;nan
41246;BME280;53880;47.526;18.986;2023-12-29T10:57:03;100022.97;;;20.47;nan
41246;BME280;53880;47.526;18.986;2023-12-29T10:59:20;100016.09;;;20.44;nan
41246;BME280;53880;47.526;18.986;2023-12-29T11:01:41;100013.56;;;20.43;nan
41246;BME280;53880;47.526;18.986;2023-12-29T11:04:06;100018.06;;;20.42;nan
41246;BME280;53880;47.526;18.986;2023-12-29T11:06:27;100016.09;;;20.44;nan
41246;BME280;53880;47.526;18.986;2023-12-29T11:08:45;100009.28;;;20.50;nan
41246;BME280;53880;47.526;18.986;2023-12-29T11:11:07;100008.63;;;20.56;nan
41246;BME280;53880;47.526;18.986;2023-12-29T11:13:28;100010.00;;;20.60;nan
41246;BME280;53880;47.526;18.986;2023-12-29T11:15:50;100000.63;;;20.64;nan
41246;BME280;53880;47.526;18.986;2023-12-29T11:18:13;99998.03;;;20.72;nan
41246;BME280;53880;47.526;18.986;2023-12-29T11:20:31;100001.41;;;20.82;nan
41246;BME280;53880;47.526;18.986;2023-12-29T11:22:55;99999.78;;;20.89;nan
41246;BME280;53880;47.526;18.986;2023-12-29T11:25:14;99987.06;;;20.91;nan
41246;BME280;53880;47.526;18.986;2023-12-29T11:27:32;99986.88;;;20.93;nan
41246;BME280;53880;47.526;18.986;2023-12-29T11:29:50;99982.38;;;20.93;nan
41246;BME280;53880;47.526;18.986;2023-12-29T11:32:16;99983.53;;;20.91;nan
41246;BME280;53880;47.526;18.986;2023-12-29T11:34:49;99980.50;;;20.86;nan
41246;BME280;53880;47.526;18.986;2023-12-29T11:40:04;99980.94;;;20.73;nan
41246;BME280;53880;47.526;18.986;2023-12-29T11:42:35;99977.22;;;20.66;nan
41246;BME280;53880;47.526;18.986;2023-12-29T11:44:59;99977.19;;;20.58;nan
41246;BME280;53880;47.526;18.986;2023-12-29T11:47:37;99973.81;;;20.48;nan
41246;BME280;53880;47.526;18.986;2023-12-29T11:49:59;99971.78;;;20.42;nan
41246;BME280;53880;47.526;18.986;2023-12-29T11:52:33;99964.06;;;20.39;nan
41246;BME280;53880;47.526;18.986;2023-12-29T11:54:53;99960.38;;;20.40;nan
41246;BME280;53880;47.526;18.986;2023-12-29T11:57:32;99954.69;;;20.43;nan
41246;BME280;53880;47.526;18.986;2023-12-29T11:59:54;99957.75;;;20.48;nan
41246;BME280;53880;47.526;18.986;2023-12-29T12:02:27;99951.56;;;20.47;nan
41246;BME280;53880;47.526;18.986;2023-12-29T12:04:46;99948.66;;;20.41;nan
41246;BME280;53880;47.526;18.986;2023-12-29T12:07:01;99944.81;;;20.35;nan
41246;BME280;53880;47.526;18.986;2023-12-29T12:09:22;99944.06;;;20.25;nan
41246;BME280;53880;47.526;18.986;2023-12-29T12:14:02;99945.97;;;20.33;nan
41246;BME280;53880;47.526;18.986;2023-12-29T12:16:52;99942.44;;;20.32;nan
41246;BME280;53880;47.526;18.986;2023-12-29T12:19:13;99934.25;;;20.34;nan
41246;BME280;53880;47.526;18.986;2023-12-29T12:21:34;99934.78;;;20.37;nan
41246;BME280;53880;47.526;18.986;2023-12-29T12:23:56;99939.50;;;20.43;nan
41246;BME280;53880;47.526;18.986;2023-12-29T12:26:15;99929.28;;;20.47;nan
41246;BME280;53880;47.526;18.986;2023-12-29T12:28:31;99924.31;;;20.52;nan
41246;BME280;53880;47.526;18.986;2023-12-29T12:30:48;99918.47;;;20.57;nan
41246;BME280;53880;47.526;18.986;2023-12-29T12:33:06;99926.88;;;20.62;nan
41246;BME280;53880;47.526;18.986;2023-12-29T12:35:26;99927.38;;;20.65;nan
41246;BME280;53880;47.526;18.986;2023-12-29T12:37:44;99916.31;;;20.68;nan
41246;BME280;53880;47.526;18.986;2023-12-29T12:40:01;99918.69;;;20.71;nan